logo
Search for airport 
image banner adimage banner adimage banner ad
image banner ad

FLMU - Mulobezi

Located in Mulobezi, Zambia

ICAO - FLMU, IATA -

Data provided by Airmate  

General information

Coordinates: S16°46'35" E25°11'9"
Elevation is 3175 feet MSL.
Magnetic variation is -6° East
View others Airports in Western Province

Operational data

Special qualification required
Current time UTC:
Current local time:
Weather at : - ( 0 km )
METAR: PAFM 140041Z AUTO 15003KT 5SM -SN FEW018 BKN026 OVC033 M07/M12 A3001 RMK AO2 P0000 FZRANO
View NOTAMs / SUP AIP / TFR affecting this airport [VIEW]
Communications frequencies: [VIEW]

Runways:

RWY identifierQFULength (ft)Width (ft)SurfaceLDA (ft)
0428°348780DIRT
22208°348780DIRT

Airport contact information

Address: Mulobezi Zambia

Satellite view of FLMU